AirNav   Air Wisconsin pilot careers
 
 806 users online  

KRED Red Lodge Airport
Red Lodge, Montana, USA

GOING TO RED LODGE?


FAA INFORMATION EFFECTIVE 03 JANUARY 2019

Location

FAA Identifier: RED
Lat/Long: 45-11-14.8010N / 109-16-02.5600W
45-11.246683N / 109-16.042667W
45.1874447 / -109.2673778
(estimated)
Elevation: 5763 ft. / 1756.6 m (surveyed)
Variation: 15E (1985)
From city: 1 mile NW of RED LODGE, MT
Time zone: UTC -7 (UTC -6 during Daylight Saving Time)
Zip code: 59068

Airport Operations

Airport use: Open to the public
Activation date: 04/1940
Control tower: no
ARTCC: SALT LAKE CITY CENTER
FSS: GREAT FALLS FLIGHT SERVICE STATION
NOTAMs facility: GTF (NOTAM-D service available)
Attendance: UNATNDD
Wind indicator: lighted
Segmented circle: yes
Lights: ACTVT MIRL RY 16/34 & VASI RY 16 - CTAF.
Beacon: white-green (lighted land airport)
Operates sunset to sunrise.

Airport Communications

CTAF: 122.9

Nearby radio navigation aids

VOR radial/distance  VOR name  Freq  Var
CODr325/36.4CODY VOR/DME111.8014E

 
NDB name  Hdg/Dist  Freq  Var  ID
POWELL302/28.034411EPOY .--. --- -.--
COWLEY284/38.625711EHCY .... -.-. -.--

Airport Services

Fuel available: 100LL
Parking: tiedowns
Bottled oxygen: NONE
Bulk oxygen: NONE

Runway Information

Runway 16/34

Dimensions: 4000 x 75 ft. / 1219 x 23 m
Surface: asphalt, in good condition
Weight bearing capacity: 
Single wheel: 4.0
Double wheel: 6.0
Runway edge lights: medium intensity
RUNWAY 16  RUNWAY 34
Gradient: 1.8%1.8%
Traffic pattern: leftleft
Markings: basic, in good conditionbasic, in good condition
Visual slope indicator: 2-box VASI on left (3.00 degrees glide path)
Obstructions: 15 ft. road, 490 ft. from runway, 19:1 slope to clear10 ft. road, 288 ft. from runway, 8:1 slope to clear
+10 FT RD 115 FT R; +4 FT FENCE 111 FT R; BOTH CROSS EXTNDD RY CNTRLN 288 FT FM THR. ALSO STEEP TERRAIN DROPOFF TO -400 FT APROXLY 127 FT R.

Airport Ownership and Management from official FAA records

Ownership: Publicly-owned
Owner: CITY OF RED LODGE- CARBON CO
P.O. BOX 887
RED LODGE, MT 59068
Phone 406-446-1595
Manager: JIM CHITTICK
PO BOX 1053
RED LODGE, MT 59068
Phone (252) 259-5624

Airport Operational Statistics

Aircraft based on the field: 13
Single engine airplanes: 13
    
Aircraft operations: avg 114/week *
62% local general aviation
34% transient general aviation
3% air taxi
<1% military
* for 12-month period ending 21 June 2016

Additional Remarks

WILDLIFE ON & INVOF ARPT.
DIGIWX WX - 2 CLICKS ON 122.725.

Instrument Procedures

There are no published instrument procedures at KRED.

Some nearby airports with instrument procedures:

KPOY - Powell Municipal Airport (28 nm SE)
6S8 - Laurel Municipal Airport (38 nm NE)
U68 - North Big Horn County Airport (39 nm SE)
KCOD - Yellowstone Regional Airport (41 nm S)
6S0 - Big Timber Airport (48 nm NW)
 
Loc | Ops | Rwys | IFR | FBO | Links
Com | Nav | Svcs | Stats | Notes
Area around KRED (Red Lodge Airport)
 
Road maps at: MapQuest Bing Google
 
Aerial photo
WARNING: Photo may not be current or correct
Aerial photo of KRED (Red Lodge Airport)
Photo by Maria Guy
Photo taken 10-Oct-2010
looking north east.

Do you have a better or more recent aerial photo of Red Lodge Airport that you would like to share? If so, please send us your photo.

 
Sectional chart

 
Airport distance calculator
Flying to Red Lodge Airport? Find the distance to fly.

From to KRED

Sunrise and sunset
Times for 18-Jan-2019
 Local
(UTC-7)
 Zulu
(UTC)
Morning civil twilight07:1914:19
Sunrise07:5214:52
Sunset17:0400:04
Evening civil twilight17:3600:36

Current date and time
Zulu (UTC)  19-Jan-2019 03:39:45
Local (UTC-7)  18-Jan-2019 20:39:45
 
METAR
KPOY 
28nm SE 
190315Z AUTO 16007KT 10SM CLR M05/M07 A3010 RMK AO2
KU68 
39nm SE 
190315Z AUTO 03004KT 10SM CLR M07/M08 A3014 RMK AO2
KCOD 
42nm S 
190256Z AUTO 33007KT 10SM CLR 00/M07 A3011 RMK AO2 SLP247 T00001067 51016 FZRANO
KBIL 
48nm NE 
190253Z 32004KT 10SM FEW075 M11/M12 A3013 RMK AO2 SLP258 T11061117 51008
K6S0 
48nm NW 
190315Z AUTO 27020G27KT 10SM CLR 03/M07 A3009 RMK A01
TAF
NOTAMs
Click for the latest NOTAMs
NOTAMs are issued by the DoD/FAA and will open in a separate window not controlled by AirNav.

 

 
 

FBO, Fuel Providers, and Aircraft Ground Support

  
 Business Name 
 
 Contact 
 
 Services / Description 
 
Fuel Prices
 
Comments
  
Ray Judd Petroleum 406-446-1332
no information available

If you are affiliated with Ray Judd Petroleum and would like to show here your services, contact info, web link, logo, and more, click here
100LL
PS $5.49 
 Updated 09-Jan-2019
 
   write
PS=Pump service
Update Fuel Prices
 

Would you like to see your business listed on this page?

 If your business provides an interesting product or service to pilots, flight crews, aircraft, or users of the Red Lodge Airport, you should consider listing it here.  To start the listing process, click on the button below
 
Add a business
 

Other Pages about Red Lodge Airport

Update a link
 
Copyright © AirNav, LLC. All rights reserved. Privacy Policy  Contact